createdAt,value
2019-03-01T00:01:13.649Z,47.43
2019-03-01T00:03:43.770Z,36.80
2019-03-01T00:06:26.323Z,42.33
2019-03-01T00:09:30.870Z,44.23
2019-03-01T00:12:22.558Z,35.27
2019-03-01T00:15:40.439Z,37.90
2019-03-01T00:19:09.012Z,44.37
2019-03-01T00:22:17.737Z,38.03
2019-03-01T00:25:07.767Z,38.53
2019-03-01T00:28:17.892Z,38.50
2019-03-01T00:31:28.372Z,31.33
2019-03-01T00:34:34.280Z,28.60
2019-03-01T00:37:42.864Z,32.90
2019-03-01T00:41:17.586Z,36.40
2019-03-01T00:44:26.186Z,38.57
2019-03-01T00:46:55.693Z,34.00
2019-03-01T00:49:25.254Z,42.87
2019-03-01T00:51:54.929Z,37.47
2019-03-01T00:54:24.505Z,29.37
2019-03-01T00:56:54.049Z,34.97
2019-03-01T00:59:23.622Z,36.37
2019-03-01T01:01:53.161Z,33.97
2019-03-01T01:04:22.734Z,36.13
2019-03-01T01:06:52.348Z,35.67
2019-03-01T01:09:22.043Z,34.27
2019-03-01T01:11:51.706Z,37.10
2019-03-01T01:14:21.270Z,28.40
2019-03-01T01:16:51.117Z,35.30
2019-03-01T01:19:21.199Z,36.20
2019-03-01T01:21:50.881Z,28.87
2019-03-01T01:24:22.741Z,40.73
2019-03-01T01:26:52.347Z,34.80
2019-03-01T01:29:21.844Z,31.97
2019-03-01T01:31:51.655Z,47.87
2019-03-01T01:34:21.295Z,35.87
2019-03-01T01:36:50.835Z,30.00
2019-03-01T01:39:20.440Z,36.93
2019-03-01T01:41:49.970Z,38.10
2019-03-01T01:44:19.552Z,43.63
2019-03-01T01:46:50.078Z,42.90
2019-03-01T01:49:19.873Z,36.13
2019-03-01T01:51:49.453Z,38.77
2019-03-01T01:54:19.239Z,40.43
2019-03-01T01:56:48.874Z,45.23
2019-03-01T01:59:18.473Z,47.97
2019-03-01T02:01:48.834Z,41.57
2019-03-01T02:04:18.400Z,47.17
2019-03-01T02:06:50.167Z,46.83
2019-03-01T02:09:23.637Z,40.77
2019-03-01T02:11:53.267Z,41.90
2019-03-01T02:14:22.837Z,44.33
2019-03-01T02:16:52.443Z,44.97
2019-03-01T02:19:22.191Z,39.93
2019-03-01T02:21:51.698Z,45.13
2019-03-01T02:24:21.183Z,36.03
2019-03-01T02:26:50.774Z,42.60
2019-03-01T02:29:20.780Z,35.83
2019-03-01T02:31:55.997Z,41.47
2019-03-01T02:34:25.943Z,38.53
2019-03-01T02:36:55.848Z,42.83
2019-03-01T02:39:25.690Z,40.43
2019-03-01T02:41:55.608Z,39.50
2019-03-01T02:44:25.430Z,38.07
2019-03-01T02:46:55.072Z,37.67
2019-03-01T02:49:24.594Z,37.10
2019-03-01T02:51:54.621Z,38.93
2019-03-01T02:54:24.270Z,43.77
2019-03-01T02:56:53.859Z,71.17
2019-03-01T02:59:23.543Z,106.70
2019-03-01T03:01:53.470Z,112.23
2019-03-01T03:04:22.999Z,116.20
2019-03-01T03:07:00.948Z,131.77
2019-03-01T03:09:30.536Z,139.77
2019-03-01T03:12:00.206Z,198.20
2019-03-01T03:14:30.177Z,203.73
2019-03-01T03:16:59.666Z,222.93
2019-03-01T03:19:29.324Z,225.27
2019-03-01T03:21:58.977Z,230.87
2019-03-01T03:24:28.662Z,227.20
2019-03-01T03:26:58.310Z,262.77
2019-03-01T03:29:27.947Z,266.37
2019-03-01T03:31:57.772Z,284.87
2019-03-01T03:34:27.293Z,262.27
2019-03-01T03:36:56.825Z,261.70
2019-03-01T03:39:26.436Z,248.57
2019-03-01T03:41:55.938Z,225.80
2019-03-01T03:44:25.305Z,232.63
2019-03-01T03:46:54.815Z,212.73
2019-03-01T03:49:24.470Z,203.47
2019-03-01T03:51:54.124Z,199.97
2019-03-01T03:54:23.977Z,186.23
2019-03-01T03:56:53.542Z,196.23
2019-03-01T03:59:23.200Z,193.73
2019-03-01T04:01:52.851Z,169.43
2019-03-01T04:04:22.467Z,167.23
2019-03-01T04:06:52.021Z,143.73
2019-03-01T04:09:21.685Z,142.23
2019-03-01T04:11:51.237Z,120.80
2019-03-01T04:14:20.820Z,122.37
2019-03-01T04:16:50.857Z,120.63
2019-03-01T04:19:20.360Z,119.03
2019-03-01T04:21:49.999Z,105.07
2019-03-01T04:24:19.680Z,104.80
2019-03-01T04:26:49.214Z,101.70
2019-03-01T04:29:21.805Z,98.27
2019-03-01T04:31:51.373Z,85.80
2019-03-01T04:34:21.076Z,89.60
2019-03-01T04:36:50.738Z,89.80
2019-03-01T04:39:20.362Z,86.87
2019-03-01T04:41:49.921Z,91.70
2019-03-01T04:44:19.536Z,88.40
2019-03-01T04:46:49.352Z,84.33
2019-03-01T04:49:18.919Z,83.17
2019-03-01T04:51:48.693Z,89.93
2019-03-01T04:54:18.522Z,78.67
2019-03-01T04:56:48.177Z,87.33
2019-03-01T04:59:17.707Z,84.10
2019-03-01T05:01:47.263Z,87.37
2019-03-01T05:04:16.895Z,83.17
2019-03-01T05:06:46.713Z,91.73
2019-03-01T05:09:16.337Z,94.40
2019-03-01T05:11:46.016Z,81.30
2019-03-01T05:14:16.018Z,85.63
2019-03-01T05:16:49.698Z,83.27
2019-03-01T05:19:19.269Z,87.00
2019-03-01T05:21:48.823Z,82.03
2019-03-01T05:24:18.562Z,82.87
2019-03-01T05:26:48.309Z,83.47
2019-03-01T05:29:17.953Z,76.30
2019-03-01T05:31:47.642Z,81.53
2019-03-01T05:34:17.433Z,75.87
2019-03-01T05:36:47.169Z,81.93
2019-03-01T05:39:16.883Z,76.70
2019-03-01T05:41:46.602Z,81.93
2019-03-01T05:44:16.443Z,75.60
2019-03-01T05:46:46.138Z,74.50
2019-03-01T05:49:15.714Z,74.03
2019-03-01T05:51:45.194Z,81.20
2019-03-01T05:54:14.708Z,68.03
2019-03-01T05:56:44.516Z,63.40
2019-03-01T05:59:16.960Z,67.30
2019-03-01T06:01:58.467Z,63.00
2019-03-01T06:04:31.964Z,64.83
2019-03-01T06:07:24.302Z,57.57
2019-03-01T06:10:18.299Z,64.53
2019-03-01T06:13:33.346Z,63.47
2019-03-01T06:16:40.600Z,59.73
2019-03-01T06:19:30.651Z,58.60
2019-03-01T06:22:47.303Z,59.20
2019-03-01T06:26:13.260Z,59.80
2019-03-01T06:29:07.503Z,64.17
2019-03-01T06:32:05.992Z,59.43
2019-03-01T06:35:22.543Z,64.77
2019-03-01T06:38:57.362Z,61.07
2019-03-01T06:42:01.778Z,57.10
2019-03-01T06:45:08.619Z,69.10
2019-03-01T06:47:40.077Z,68.87
2019-03-01T06:50:18.182Z,65.97
2019-03-01T06:52:47.873Z,72.23
2019-03-01T06:55:40.742Z,64.93
2019-03-01T06:58:16.567Z,65.33
2019-03-01T07:00:50.469Z,73.97
2019-03-01T07:03:19.341Z,74.57
2019-03-01T07:05:49.255Z,65.10
2019-03-01T07:08:18.896Z,77.57
2019-03-01T07:10:48.675Z,66.10
2019-03-01T07:13:18.668Z,74.67
2019-03-01T07:15:48.462Z,68.23
2019-03-01T07:18:18.387Z,71.87
2019-03-01T07:20:48.109Z,63.77
2019-03-01T07:23:17.835Z,63.93
2019-03-01T07:25:47.612Z,75.30
2019-03-01T07:28:17.155Z,71.07
2019-03-01T07:30:46.968Z,62.97
2019-03-01T07:33:16.525Z,62.43
2019-03-01T07:35:46.464Z,71.57
2019-03-01T07:38:16.495Z,65.40
2019-03-01T07:40:46.473Z,69.27
2019-03-01T07:43:16.121Z,69.93
2019-03-01T07:45:46.204Z,68.13
2019-03-01T07:48:15.897Z,68.00
2019-03-01T07:50:45.682Z,69.13
2019-03-01T07:53:15.477Z,70.17
2019-03-01T07:55:46.563Z,74.37
2019-03-01T07:58:16.155Z,64.47
2019-03-01T08:00:47.211Z,67.10
2019-03-01T08:03:18.358Z,68.37
2019-03-01T08:05:48.031Z,66.53
2019-03-01T08:08:17.870Z,61.13
2019-03-01T08:10:47.560Z,65.50
2019-03-01T08:13:18.355Z,62.80
2019-03-01T08:15:48.025Z,64.57
2019-03-01T08:18:17.660Z,66.33
2019-03-01T08:20:47.277Z,70.93
2019-03-01T08:23:16.837Z,63.80
2019-03-01T08:25:46.687Z,57.10
2019-03-01T08:28:18.522Z,50.87
2019-03-01T08:30:47.642Z,55.13
2019-03-01T08:33:17.163Z,49.60
2019-03-01T08:35:46.812Z,48.37
2019-03-01T08:38:16.344Z,50.43
2019-03-01T08:40:46.697Z,50.63
2019-03-01T08:43:17.379Z,46.37
2019-03-01T08:45:46.952Z,53.50
2019-03-01T08:48:16.562Z,37.57
2019-03-01T08:50:46.214Z,36.97
2019-03-01T08:53:16.163Z,39.97
2019-03-01T08:55:46.997Z,36.70
2019-03-01T08:58:16.489Z,38.37
2019-03-01T09:00:46.042Z,36.23
2019-03-01T09:03:22.225Z,24.50
2019-03-01T09:05:51.842Z,27.80
2019-03-01T09:08:21.560Z,27.33
2019-03-01T09:10:51.367Z,27.63
2019-03-01T09:13:20.899Z,24.33
2019-03-01T09:15:50.472Z,20.97
2019-03-01T09:18:20.101Z,21.43
2019-03-01T09:20:49.734Z,22.67
2019-03-01T09:23:24.301Z,20.70
2019-03-01T09:25:50.396Z,19.50
2019-03-01T09:28:19.792Z,26.90
2019-03-01T09:30:49.211Z,19.40
2019-03-01T09:33:21.317Z,21.13
2019-03-01T09:35:57.490Z,17.13
2019-03-01T09:38:26.852Z,16.03
2019-03-01T09:40:57.489Z,22.43
2019-03-01T09:43:27.807Z,14.10
2019-03-01T09:45:58.817Z,17.13
2019-03-01T09:48:28.189Z,17.47
2019-03-01T09:50:57.597Z,14.27
2019-03-01T09:53:30.688Z,19.63
2019-03-01T09:55:59.967Z,24.40
2019-03-01T09:58:29.626Z,19.03
2019-03-01T10:01:03.391Z,12.63
2019-03-01T10:03:32.897Z,15.53
2019-03-01T10:06:02.793Z,14.53
2019-03-01T10:08:32.279Z,17.47
2019-03-01T10:11:02.074Z,14.00
2019-03-01T10:13:31.541Z,17.63
2019-03-01T10:16:01.145Z,13.73
2019-03-01T10:18:30.963Z,17.60
2019-03-01T10:21:00.430Z,19.13
2019-03-01T10:23:30.029Z,16.40
2019-03-01T10:25:59.469Z,13.60
2019-03-01T10:28:29.110Z,14.53
2019-03-01T10:30:59.179Z,14.23
2019-03-01T10:33:28.675Z,16.63
2019-03-01T10:35:58.204Z,15.97
2019-03-01T10:38:27.715Z,16.40
2019-03-01T10:40:57.124Z,18.83
2019-03-01T10:43:26.607Z,16.47
2019-03-01T10:45:56.141Z,17.83
2019-03-01T10:48:27.435Z,16.53
2019-03-01T10:50:57.033Z,13.30
2019-03-01T10:53:26.564Z,14.57
2019-03-01T10:55:56.227Z,14.43
2019-03-01T10:58:25.835Z,15.73
2019-03-01T11:00:55.929Z,19.40
2019-03-01T11:03:25.694Z,13.57
2019-03-01T11:05:55.659Z,17.63
2019-03-01T11:08:25.569Z,16.77
2019-03-01T11:10:55.413Z,18.07
2019-03-01T11:13:24.882Z,16.30
2019-03-01T11:15:54.710Z,21.77
2019-03-01T11:18:24.193Z,20.13
2019-03-01T11:20:53.666Z,17.40
2019-03-01T11:23:23.408Z,15.80
2019-03-01T11:25:53.222Z,14.97
2019-03-01T11:28:22.753Z,17.20
2019-03-01T11:30:52.195Z,15.60
2019-03-01T11:33:21.796Z,19.63
2019-03-01T11:35:51.397Z,14.70
2019-03-01T11:38:20.894Z,18.93
2019-03-01T11:40:50.459Z,23.97
2019-03-01T11:43:19.970Z,13.53
2019-03-01T11:45:49.709Z,16.00
2019-03-01T11:48:19.237Z,13.70
2019-03-01T11:50:49.175Z,18.57
2019-03-01T11:53:18.676Z,18.00
2019-03-01T11:55:49.088Z,15.40
2019-03-01T11:58:18.673Z,15.87
2019-03-01T12:00:52.329Z,17.13
2019-03-01T12:03:19.373Z,23.30
2019-03-01T12:05:49.124Z,14.63
2019-03-01T12:08:18.545Z,15.50
2019-03-01T12:10:48.168Z,16.10
2019-03-01T12:13:17.687Z,15.47
2019-03-01T12:15:47.124Z,13.67
2019-03-01T12:18:16.669Z,18.70
2019-03-01T12:20:46.074Z,19.13
2019-03-01T12:23:15.680Z,16.30
2019-03-01T12:25:45.194Z,22.43
2019-03-01T12:28:14.811Z,16.47
2019-03-01T12:30:44.535Z,14.13
2019-03-01T12:33:14.090Z,12.67
2019-03-01T12:35:43.900Z,13.40
2019-03-01T12:38:13.588Z,16.73
2019-03-01T12:40:43.082Z,13.87
2019-03-01T12:43:12.642Z,18.17
2019-03-01T12:45:42.260Z,16.10
2019-03-01T12:48:11.790Z,18.10
2019-03-01T12:50:41.387Z,12.77
2019-03-01T12:53:10.741Z,13.43
2019-03-01T12:55:40.372Z,14.70
2019-03-01T12:58:19.043Z,14.77
2019-03-01T13:00:41.115Z,11.93
2019-03-01T13:03:10.822Z,12.93
2019-03-01T13:05:40.330Z,16.30
2019-03-01T13:08:12.527Z,15.50
2019-03-01T13:10:41.454Z,19.87
2019-03-01T13:13:10.996Z,13.63
2019-03-01T13:15:40.681Z,16.07
2019-03-01T13:18:15.768Z,17.23
2019-03-01T13:20:41.454Z,12.57
2019-03-01T13:23:10.977Z,15.90
2019-03-01T13:25:40.432Z,15.73
2019-03-01T13:28:09.779Z,15.23
2019-03-01T13:30:39.462Z,13.47
2019-03-01T13:33:09.063Z,16.90
2019-03-01T13:35:38.812Z,10.27
2019-03-01T13:38:08.629Z,15.13
2019-03-01T13:40:38.090Z,12.60
2019-03-01T13:43:07.670Z,15.33
2019-03-01T13:45:37.435Z,12.03
2019-03-01T13:48:06.986Z,11.93
2019-03-01T13:50:38.292Z,11.07
2019-03-01T13:53:07.868Z,16.37
2019-03-01T13:55:37.449Z,13.23
2019-03-01T13:58:06.899Z,16.27
2019-03-01T14:00:36.394Z,10.87
2019-03-01T14:03:06.141Z,16.40
2019-03-01T14:05:35.499Z,14.90
2019-03-01T14:08:08.914Z,17.23
2019-03-01T14:10:38.576Z,14.27
2019-03-01T14:13:07.364Z,15.20
2019-03-01T14:15:38.506Z,13.33
2019-03-01T14:18:07.966Z,17.80
2019-03-01T14:20:37.559Z,16.57
2019-03-01T14:23:07.323Z,16.13
2019-03-01T14:25:38.496Z,12.43
2019-03-01T14:28:08.005Z,10.03
2019-03-01T14:30:37.969Z,13.40
2019-03-01T14:33:07.387Z,15.70
2019-03-01T14:35:37.063Z,13.60
2019-03-01T14:38:08.235Z,14.77
2019-03-01T14:40:37.814Z,17.97
2019-03-01T14:43:07.892Z,13.47
2019-03-01T14:45:37.476Z,20.10
2019-03-01T14:48:08.783Z,22.23
2019-03-01T14:50:38.253Z,21.63
2019-03-01T14:53:07.816Z,18.00
2019-03-01T14:55:43.235Z,18.80
2019-03-01T14:58:43.362Z,17.80
2019-03-01T15:01:40.160Z,16.70
2019-03-01T15:04:09.974Z,20.63
2019-03-01T15:06:39.694Z,16.57
2019-03-01T15:09:09.891Z,18.60
2019-03-01T15:11:41.099Z,18.30
2019-03-01T15:14:13.422Z,17.97
2019-03-01T15:16:43.338Z,20.17
2019-03-01T15:19:13.269Z,21.50
2019-03-01T15:21:42.775Z,21.00
2019-03-01T15:24:12.234Z,23.97
2019-03-01T15:26:45.987Z,21.07
2019-03-01T15:29:13.679Z,23.87
2019-03-01T15:31:43.417Z,19.73
2019-03-01T15:34:13.300Z,20.57
2019-03-01T15:36:43.248Z,21.93
2019-03-01T15:39:12.787Z,24.00
2019-03-01T15:41:43.044Z,20.57
2019-03-01T15:44:12.682Z,23.17
2019-03-01T15:46:42.210Z,21.27
2019-03-01T15:49:15.241Z,25.87
2019-03-01T15:51:43.386Z,23.57
2019-03-01T15:54:13.611Z,22.27
2019-03-01T15:56:43.785Z,23.10
2019-03-01T15:59:13.849Z,18.50
2019-03-01T16:01:46.820Z,25.13
2019-03-01T16:04:18.511Z,20.30
2019-03-01T16:06:48.350Z,21.57
2019-03-01T16:09:18.495Z,20.50
2019-03-01T16:11:49.157Z,20.87
2019-03-01T16:14:21.014Z,26.53
2019-03-01T16:16:50.175Z,22.63
2019-03-01T16:19:19.804Z,25.27
2019-03-01T16:21:49.817Z,23.87
2019-03-01T16:24:19.684Z,27.30
2019-03-01T16:26:49.280Z,32.03
2019-03-01T16:29:19.049Z,24.90
2019-03-01T16:31:49.645Z,21.83
2019-03-01T16:34:19.499Z,22.67
2019-03-01T16:36:54.972Z,26.00
2019-03-01T16:39:24.769Z,22.10
2019-03-01T16:41:54.640Z,21.57
2019-03-01T16:44:24.209Z,24.93
2019-03-01T16:46:54.045Z,25.87
2019-03-01T16:49:27.125Z,20.37
2019-03-01T16:51:55.661Z,27.13
2019-03-01T16:54:25.490Z,26.20
2019-03-01T16:56:55.206Z,27.60
2019-03-01T16:59:25.106Z,30.47
2019-03-01T17:01:55.266Z,24.53
2019-03-01T17:04:27.415Z,27.57
2019-03-01T17:06:55.934Z,27.73
2019-03-01T17:09:25.704Z,22.53
2019-03-01T17:11:55.337Z,23.33
2019-03-01T17:14:25.301Z,23.80
2019-03-01T17:16:56.307Z,27.00
2019-03-01T17:19:31.617Z,23.70
2019-03-01T17:22:01.497Z,23.90
2019-03-01T17:24:31.949Z,24.20
2019-03-01T17:27:06.751Z,23.23
2019-03-01T17:29:39.035Z,22.30
2019-03-01T17:32:08.621Z,30.03
2019-03-01T17:34:38.532Z,23.37
2019-03-01T17:37:08.594Z,24.63
2019-03-01T17:39:38.452Z,25.17
2019-03-01T17:42:08.229Z,24.53
2019-03-01T17:44:37.958Z,24.37
2019-03-01T17:47:09.741Z,24.47
2019-03-01T17:49:39.394Z,28.17
2019-03-01T17:52:09.515Z,24.87
2019-03-01T17:54:39.595Z,28.13
2019-03-01T17:57:09.440Z,25.50
2019-03-01T17:59:39.503Z,24.03
2019-03-01T18:02:12.099Z,26.60
2019-03-01T18:04:40.851Z,26.57
2019-03-01T18:07:10.650Z,25.97
2019-03-01T18:09:40.482Z,25.00
2019-03-01T18:12:10.192Z,29.00
2019-03-01T18:14:40.195Z,28.27
2019-03-01T18:17:09.826Z,29.73
2019-03-01T18:19:39.398Z,30.67
2019-03-01T18:22:09.026Z,26.60
2019-03-01T18:24:39.113Z,32.83
2019-03-01T18:27:08.661Z,32.17
2019-03-01T18:29:39.074Z,30.53
2019-03-01T18:32:09.930Z,28.23
2019-03-01T18:34:40.411Z,36.30
2019-03-01T18:37:19.218Z,32.00
2019-03-01T18:39:42.243Z,34.03
2019-03-01T18:42:12.397Z,34.37
2019-03-01T18:44:41.952Z,32.87
2019-03-01T18:47:11.901Z,30.50
2019-03-01T18:49:41.581Z,34.50
2019-03-01T18:52:11.154Z,26.70
2019-03-01T18:54:42.984Z,35.80
2019-03-01T18:57:13.491Z,34.70
2019-03-01T18:59:43.320Z,34.73
2019-03-01T19:02:12.940Z,30.63
2019-03-01T19:04:42.770Z,32.23
2019-03-01T19:07:12.459Z,34.17
2019-03-01T19:09:42.126Z,34.67
2019-03-01T19:12:12.554Z,35.13
2019-03-01T19:14:42.823Z,35.10
2019-03-01T19:17:12.789Z,33.93
2019-03-01T19:19:42.842Z,36.17
2019-03-01T19:22:12.403Z,34.17
2019-03-01T19:24:43.339Z,28.17
2019-03-01T19:27:15.617Z,38.20
2019-03-01T19:29:44.914Z,37.20
2019-03-01T19:32:14.517Z,35.67
2019-03-01T19:34:44.610Z,32.10
2019-03-01T19:37:14.565Z,32.40
2019-03-01T19:39:44.121Z,36.00
2019-03-01T19:42:13.528Z,36.73
2019-03-01T19:44:43.220Z,35.73
2019-03-01T19:47:12.948Z,37.17
2019-03-01T19:49:45.282Z,32.80
2019-03-01T19:52:14.176Z,36.50
2019-03-01T19:54:43.567Z,36.70
2019-03-01T19:57:13.594Z,42.77
2019-03-01T19:59:46.529Z,35.63
2019-03-01T20:02:14.882Z,51.90
2019-03-01T20:04:44.620Z,34.93
2019-03-01T20:07:16.090Z,36.60
2019-03-01T20:09:46.799Z,32.03
2019-03-01T20:12:18.275Z,38.37
2019-03-01T20:14:48.201Z,33.07
2019-03-01T20:17:18.067Z,35.23
2019-03-01T20:19:48.601Z,40.23
2019-03-01T20:22:19.463Z,37.23
2019-03-01T20:24:49.213Z,39.40
2019-03-01T20:27:18.860Z,38.87
2019-03-01T20:29:49.548Z,39.60
2019-03-01T20:32:19.517Z,40.53
2019-03-01T20:34:49.270Z,36.83
2019-03-01T20:37:19.143Z,38.00
2019-03-01T20:39:51.049Z,45.13
2019-03-01T20:42:23.589Z,41.07
2019-03-01T20:44:53.140Z,45.17
2019-03-01T20:47:23.569Z,40.07
2019-03-01T20:49:54.989Z,44.10
2019-03-01T20:52:24.804Z,38.80
2019-03-01T20:54:57.808Z,43.37
2019-03-01T20:57:28.307Z,42.13
2019-03-01T20:59:57.842Z,38.30
2019-03-01T21:02:27.694Z,43.23
2019-03-01T21:04:57.443Z,44.97
2019-03-01T21:07:27.124Z,44.73
2019-03-01T21:09:57.311Z,42.10
2019-03-01T21:12:26.989Z,42.20
2019-03-01T21:14:58.731Z,49.23
2019-03-01T21:17:28.696Z,44.43
2019-03-01T21:19:58.295Z,49.63
2019-03-01T21:22:27.975Z,45.27
2019-03-01T21:24:59.281Z,52.77
2019-03-01T21:27:29.252Z,46.53
2019-03-01T21:29:58.920Z,46.00
2019-03-01T21:32:28.565Z,44.47
2019-03-01T21:34:58.260Z,47.73
2019-03-01T21:37:28.166Z,47.63
2019-03-01T21:39:59.226Z,43.70
2019-03-01T21:42:29.143Z,50.87
2019-03-01T21:44:58.837Z,46.53
2019-03-01T21:47:28.407Z,43.90
2019-03-01T21:49:59.927Z,44.70
2019-03-01T21:52:30.425Z,43.27
2019-03-01T21:55:00.266Z,44.67
2019-03-01T21:57:31.169Z,45.67
2019-03-01T22:00:00.707Z,46.43
2019-03-01T22:02:30.536Z,45.97
2019-03-01T22:05:01.063Z,44.57
2019-03-01T22:07:33.568Z,45.63
2019-03-01T22:10:02.531Z,46.60
2019-03-01T22:12:32.541Z,47.80
2019-03-01T22:15:02.292Z,49.73
2019-03-01T22:17:32.235Z,43.27
2019-03-01T22:20:01.867Z,55.17
2019-03-01T22:22:34.167Z,45.30
2019-03-01T22:25:03.275Z,50.80
2019-03-01T22:27:34.643Z,47.23
2019-03-01T22:30:05.141Z,47.63
2019-03-01T22:32:34.645Z,46.10
2019-03-01T22:35:08.501Z,46.10
2019-03-01T22:37:35.993Z,46.23
2019-03-01T22:40:06.435Z,46.00
2019-03-01T22:42:36.042Z,46.20
2019-03-01T22:45:06.240Z,46.80
2019-03-01T22:47:36.171Z,43.77
2019-03-01T22:50:07.890Z,49.20
2019-03-01T22:52:37.573Z,49.63
2019-03-01T22:55:07.605Z,48.53
2019-03-01T22:57:37.775Z,47.17
2019-03-01T23:00:11.663Z,48.27
2019-03-01T23:02:44.497Z,46.47
2019-03-01T23:05:14.074Z,46.13
2019-03-01T23:07:44.387Z,53.10
2019-03-01T23:10:14.259Z,52.83
2019-03-01T23:12:45.383Z,56.23
2019-03-01T23:15:15.073Z,53.57
2019-03-01T23:17:44.815Z,50.80
2019-03-01T23:20:15.115Z,52.97
2019-03-01T23:22:46.028Z,51.47
2019-03-01T23:25:16.139Z,50.70
2019-03-01T23:27:45.839Z,51.90
2019-03-01T23:30:17.347Z,46.87
2019-03-01T23:32:48.681Z,47.57
2019-03-01T23:35:19.023Z,52.43
2019-03-01T23:37:48.786Z,48.87
2019-03-01T23:40:18.347Z,55.80
2019-03-01T23:42:48.088Z,51.60
2019-03-01T23:45:18.579Z,55.03
2019-03-01T23:47:48.711Z,48.63
2019-03-01T23:50:18.595Z,49.23
2019-03-01T23:52:48.403Z,51.53
2019-03-01T23:55:18.968Z,53.27
2019-03-01T23:57:50.347Z,53.17
